Time;durP1;ratioP1;P1;durP2;ratioP2;P2;SDS_P1;SDS_P2;PMS_P1;PMS_P2;Temp;Humidity;BMP_temperature;BMP_pressure;BME280_temperature;BME280_humidity;BME280_pressure;Samples;Min_cycle;Max_cycle;Signal;HPM_P1;HPM_P2
2021/01/07 00:00:47;;;;;;;37.03;20.23;;;-2.10;85.70;;;;;;4976644;28;20022;-77
2021/01/07 00:03:13;;;;;;;41.63;22.08;;;-2.10;85.50;;;;;;4976381;28;20484;-79
2021/01/07 00:05:40;;;;;;;41.90;22.42;;;-2.10;85.40;;;;;;4976777;28;20147;-78
2021/01/07 00:08:06;;;;;;;36.08;21.33;;;-2.20;85.80;;;;;;4976472;28;20122;-77
2021/01/07 00:10:32;;;;;;;39.58;22.80;;;-2.20;86.20;;;;;;4978106;28;20103;-76
2021/01/07 00:12:58;;;;;;;37.92;20.95;;;-2.20;86.20;;;;;;4989621;28;20101;-78
2021/01/07 00:15:24;;;;;;;39.80;22.27;;;-2.20;86.40;;;;;;4977096;28;20143;-78
2021/01/07 00:17:49;;;;;;;39.92;22.63;;;-2.20;86.60;;;;;;4981742;28;20519;-77
2021/01/07 00:20:15;;;;;;;45.28;20.67;;;-2.20;86.60;;;;;;4983391;28;20023;-76
2021/01/07 00:22:41;;;;;;;37.25;21.13;;;-2.30;86.50;;;;;;4978117;28;20500;-77
2021/01/07 00:25:08;;;;;;;42.50;22.80;;;-2.30;86.90;;;;;;4959486;28;20101;-77
2021/01/07 00:27:35;;;;;;;41.35;23.25;;;-2.30;87.20;;;;;;4976429;28;20030;-78
2021/01/07 00:30:04;;;;;;;41.20;22.00;;;-2.30;87.30;;;;;;4976187;28;20062;-76
2021/01/07 00:32:30;;;;;;;41.80;21.13;;;-2.30;87.40;;;;;;4976708;28;20027;-78
2021/01/07 00:34:56;;;;;;;38.38;22.55;;;-2.30;87.40;;;;;;4976295;28;20435;-78
2021/01/07 00:37:21;;;;;;;43.10;24.38;;;-2.40;87.30;;;;;;4968505;28;20045;-79
2021/01/07 00:39:47;;;;;;;39.65;23.40;;;-2.40;87.50;;;;;;4975927;28;20030;-78
2021/01/07 00:42:16;;;;;;;44.92;24.38;;;-2.40;87.50;;;;;;4982657;28;20031;-78
2021/01/07 00:44:42;;;;;;;37.17;21.27;;;-2.40;87.50;;;;;;4976056;28;20419;-78
2021/01/07 00:47:08;;;;;;;47.28;24.95;;;-2.40;87.10;;;;;;4976092;28;20039;-79
2021/01/07 00:49:34;;;;;;;39.72;22.45;;;-2.40;87.00;;;;;;4976285;28;20019;-78
2021/01/07 00:51:59;;;;;;;39.60;21.17;;;-2.40;87.00;;;;;;4976093;28;20169;-78
2021/01/07 00:54:26;;;;;;;40.65;20.30;;;-2.40;86.90;;;;;;4976196;28;20035;-78
2021/01/07 00:56:52;;;;;;;40.23;22.67;;;-2.50;87.10;;;;;;4976630;28;20082;-77
2021/01/07 00:59:18;;;;;;;38.35;21.35;;;-2.50;87.30;;;;;;4980189;28;20031;-77
2021/01/07 01:01:50;;;;;;;39.05;22.05;;;-2.50;87.30;;;;;;4976805;28;20051;-78
2021/01/07 01:04:16;;;;;;;34.70;21.05;;;-2.50;87.40;;;;;;4976011;28;20025;-78
2021/01/07 01:06:43;;;;;;;42.67;21.30;;;-2.50;87.50;;;;;;4975753;28;20380;-76
2021/01/07 01:09:11;;;;;;;34.38;21.83;;;-2.50;87.40;;;;;;4976028;28;20031;-77
2021/01/07 01:11:40;;;;;;;;;;;-2.40;87.40;;;;;;4975367;28;20019;-77
2021/01/07 01:14:07;;;;;;;37.33;19.50;;;-2.40;87.50;;;;;;4974369;28;19906;-77
2021/01/07 01:16:32;;;;;;;37.70;18.77;;;-2.50;87.50;;;;;;4975467;28;20015;-77
2021/01/07 01:18:58;;;;;;;37.10;20.58;;;-2.50;87.50;;;;;;4975560;28;20106;-77
2021/01/07 01:21:24;;;;;;;34.63;17.42;;;-2.50;87.60;;;;;;4975358;28;20023;-77
2021/01/07 01:23:50;;;;;;;38.00;19.85;;;-2.50;87.80;;;;;;4975969;28;20477;-77
2021/01/07 01:26:19;;;;;;;40.03;21.25;;;-2.40;88.00;;;;;;4975799;28;20076;-77
2021/01/07 01:28:45;;;;;;;35.38;20.33;;;-2.40;88.20;;;;;;4958533;28;20432;-77
2021/01/07 01:31:11;;;;;;;37.67;21.30;;;-2.40;88.10;;;;;;4977237;28;20428;-77
2021/01/07 01:33:38;;;;;;;41.55;23.17;;;-2.40;88.00;;;;;;4962668;28;20093;-77
2021/01/07 01:36:05;;;;;;;37.28;21.23;;;-2.40;87.90;;;;;;4948515;29;20038;-77
2021/01/07 01:38:31;;;;;;;37.70;23.70;;;-2.30;88.10;;;;;;4958010;28;20059;-76
2021/01/07 01:41:15;;;;;;;35.90;20.17;;;-2.40;88.20;;;;;;4975403;28;20080;-76
2021/01/07 01:43:41;;;;;;;35.35;19.73;;;-2.30;88.20;;;;;;4961361;28;20038;-77
2021/01/07 01:46:07;;;;;;;34.03;20.55;;;-2.30;88.00;;;;;;4974791;28;20157;-77
2021/01/07 01:48:33;;;;;;;42.97;23.83;;;-2.30;87.80;;;;;;4975365;28;20031;-78
2021/01/07 01:51:00;;;;;;;39.60;22.20;;;-2.30;87.50;;;;;;4975239;28;20366;-77
2021/01/07 01:53:26;;;;;;;27.03;15.40;;;-2.30;87.40;;;;;;4982519;28;20026;-77
2021/01/07 01:55:52;;;;;;;35.78;21.23;;;-2.40;87.50;;;;;;4985704;28;20106;-77
2021/01/07 01:58:18;;;;;;;28.75;18.48;;;-2.40;87.80;;;;;;4962534;28;20030;-77
2021/01/07 02:00:44;;;;;;;28.30;15.88;;;-2.40;88.00;;;;;;4976236;28;20036;-78
2021/01/07 02:03:10;;;;;;;34.80;19.05;;;-2.40;88.20;;;;;;4974806;28;20027;-77
2021/01/07 02:05:38;;;;;;;36.80;20.13;;;-2.40;88.10;;;;;;4974665;28;20023;-77
2021/01/07 02:08:05;;;;;;;31.92;19.67;;;-2.40;87.90;;;;;;4975006;28;20116;-76
2021/01/07 02:10:34;;;;;;;30.98;18.33;;;-2.50;87.60;;;;;;4975059;28;20092;-78
2021/01/07 02:13:03;;;;;;;33.00;18.77;;;-2.40;87.40;;;;;;4974517;28;20069;-77
2021/01/07 02:15:29;;;;;;;38.95;20.73;;;-2.50;87.60;;;;;;4974540;28;20023;-77
2021/01/07 02:17:57;;;;;;;35.70;21.08;;;-2.50;87.60;;;;;;4974647;28;20034;-79
2021/01/07 02:20:25;;;;;;;37.95;21.33;;;-2.50;87.50;;;;;;4974473;28;20532;-77
2021/01/07 02:22:55;;;;;;;37.47;20.65;;;-2.50;87.60;;;;;;4974435;28;20457;-77
2021/01/07 02:25:22;;;;;;;34.30;20.40;;;-2.50;87.50;;;;;;4973262;28;20055;-77
2021/01/07 02:27:49;;;;;;;42.45;20.80;;;-2.50;87.60;;;;;;4974360;28;20081;-78
2021/01/07 02:30:16;;;;;;;33.75;19.33;;;-2.40;87.50;;;;;;4974355;28;20445;-78
2021/01/07 02:32:43;;;;;;;35.50;21.48;;;-2.40;87.50;;;;;;4974318;28;20026;-77
2021/01/07 02:35:10;;;;;;;36.60;21.70;;;-2.40;87.70;;;;;;4974124;28;20030;-78
2021/01/07 02:37:36;;;;;;;35.47;22.27;;;-2.40;87.60;;;;;;4974570;28;20041;-79
2021/01/07 02:40:07;;;;;;;35.53;21.33;;;-2.40;87.10;;;;;;4975094;28;20369;-78
2021/01/07 02:42:33;;;;;;;40.33;23.40;;;-2.40;87.00;;;;;;4983480;28;20102;-77
2021/01/07 02:44:59;;;;;;;44.53;22.13;;;-2.40;86.70;;;;;;4956752;28;20027;-78
2021/01/07 02:47:25;;;;;;;31.67;18.63;;;-2.50;86.70;;;;;;4973867;28;20031;-77
2021/01/07 02:49:52;;;;;;;38.60;21.75;;;-2.50;86.70;;;;;;4974157;28;20023;-78
2021/01/07 02:52:18;;;;;;;37.55;20.23;;;-2.50;86.20;;;;;;4973743;28;20066;-77
2021/01/07 02:54:44;;;;;;;32.40;20.63;;;-2.50;86.20;;;;;;4974314;28;20109;-77
2021/01/07 02:57:09;;;;;;;37.70;20.20;;;-2.60;86.40;;;;;;4974023;28;20124;-77
2021/01/07 02:59:35;;;;;;;36.38;20.77;;;-2.60;86.60;;;;;;4973882;28;20023;-77
2021/01/07 03:02:01;;;;;;;39.95;20.13;;;-2.50;86.80;;;;;;4973947;28;20022;-77
2021/01/07 03:04:27;;;;;;;33.95;20.25;;;-2.50;86.50;;;;;;4973771;28;20022;-78
2021/01/07 03:06:52;;;;;;;35.20;19.35;;;-2.50;86.60;;;;;;4973986;28;20042;-78
2021/01/07 03:09:18;;;;;;;41.28;21.92;;;-2.50;86.50;;;;;;4973853;28;21831;-78
2021/01/07 03:11:44;;;;;;;37.63;22.10;;;-2.50;86.40;;;;;;4973777;28;20513;-77
2021/01/07 03:14:10;;;;;;;35.13;20.90;;;-2.50;86.50;;;;;;4956195;28;20023;-77
2021/01/07 03:16:35;;;;;;;37.25;20.92;;;-2.50;86.50;;;;;;4973877;28;20015;-78
2021/01/07 03:19:01;;;;;;;35.78;19.35;;;-2.50;86.70;;;;;;4974105;28;20019;-78
2021/01/07 03:21:27;;;;;;;37.05;20.83;;;-2.40;87.00;;;;;;4973523;28;20033;-78
2021/01/07 03:23:53;;;;;;;37.42;21.13;;;-2.40;87.20;;;;;;4956384;28;20035;-78
2021/01/07 03:26:19;;;;;;;33.70;21.45;;;-2.40;87.20;;;;;;4972587;28;21692;-79
2021/01/07 03:28:44;;;;;;;37.42;19.58;;;-2.40;87.30;;;;;;4974524;28;20107;-78
2021/01/07 03:31:10;;;;;;;30.90;17.73;;;-2.50;87.10;;;;;;4974985;28;20027;-78
2021/01/07 03:33:37;;;;;;;28.33;16.75;;;-2.50;87.00;;;;;;4967498;28;20110;-78
2021/01/07 03:36:03;;;;;;;31.52;18.13;;;-2.50;87.40;;;;;;4971238;28;20054;-77
2021/01/07 03:38:29;;;;;;;31.92;18.10;;;-2.60;87.20;;;;;;4977629;28;20019;-78
2021/01/07 03:40:55;;;;;;;31.35;18.55;;;-2.60;87.10;;;;;;4985608;28;20562;-78
2021/01/07 03:43:21;;;;;;;28.02;15.82;;;-2.60;86.90;;;;;;4989144;28;20023;-76
2021/01/07 03:45:47;;;;;;;29.17;16.15;;;-2.60;87.10;;;;;;4983983;28;20085;-77
2021/01/07 03:48:12;;;;;;;27.77;15.38;;;-2.60;87.10;;;;;;4978704;28;20507;-76
2021/01/07 03:50:38;;;;;;;23.83;15.98;;;-2.60;86.70;;;;;;4981402;28;20078;-76
2021/01/07 03:53:04;;;;;;;27.00;15.32;;;-2.70;86.60;;;;;;4979033;28;20027;-78
2021/01/07 03:55:30;;;;;;;29.33;19.10;;;-2.70;86.30;;;;;;4979021;28;20023;-76
2021/01/07 03:57:56;;;;;;;28.27;17.20;;;-2.70;86.10;;;;;;4960172;28;20023;-77
2021/01/07 04:00:22;;;;;;;33.45;19.45;;;-2.70;86.20;;;;;;4976959;28;20029;-77
2021/01/07 04:02:48;;;;;;;33.88;20.50;;;-2.60;86.20;;;;;;4977020;28;20055;-77
2021/01/07 04:05:13;;;;;;;41.92;24.42;;;-2.70;86.10;;;;;;4976888;28;20027;-78
2021/01/07 04:07:39;;;;;;;37.83;19.90;;;-2.70;85.80;;;;;;4959577;28;20480;-78
2021/01/07 04:10:07;;;;;;;36.85;21.17;;;-2.70;85.80;;;;;;4977098;28;20034;-76
2021/01/07 04:12:33;;;;;;;36.80;20.55;;;-2.70;85.50;;;;;;4976837;28;20030;-76
2021/01/07 04:14:59;;;;;;;41.58;19.98;;;-2.80;85.70;;;;;;4977116;28;20034;-77
2021/01/07 04:17:25;;;;;;;42.47;22.00;;;-2.90;85.70;;;;;;4976421;28;20772;-79
2021/01/07 04:19:51;;;;;;;40.55;21.23;;;-2.90;85.20;;;;;;4976555;28;20031;-79
2021/01/07 04:22:17;;;;;;;41.40;24.42;;;-3.00;85.10;;;;;;4976506;28;20029;-77
2021/01/07 04:24:43;;;;;;;41.42;22.58;;;-3.10;85.80;;;;;;4976189;28;20456;-77
2021/01/07 04:27:08;;;;;;;53.47;24.58;;;-3.20;86.90;;;;;;4976501;28;20043;-78
2021/01/07 04:29:34;;;;;;;31.73;16.77;;;-3.20;86.50;;;;;;4976040;28;20074;-78
2021/01/07 04:32:00;;;;;;;38.03;20.77;;;-3.20;86.70;;;;;;4976343;28;20033;-78
2021/01/07 04:34:26;;;;;;;35.92;22.10;;;-3.20;86.60;;;;;;4976331;28;20361;-79
2021/01/07 04:36:51;;;;;;;42.25;24.38;;;-3.30;86.60;;;;;;4976194;28;20369;-77
2021/01/07 04:39:17;;;;;;;33.17;18.63;;;-3.30;86.90;;;;;;4976121;28;20030;-78
2021/01/07 04:41:43;;;;;;;35.60;20.63;;;-3.30;86.80;;;;;;4975621;28;20058;-78
2021/01/07 04:44:10;;;;;;;33.72;19.35;;;-3.30;86.50;;;;;;4975986;28;20018;-77
2021/01/07 04:46:36;;;;;;;38.20;22.30;;;-3.30;86.60;;;;;;4974745;28;20039;-79
2021/01/07 04:49:02;;;;;;;39.30;21.25;;;-3.30;86.70;;;;;;4975813;28;20114;-78
2021/01/07 04:51:28;;;;;;;34.22;19.27;;;-3.40;86.70;;;;;;4976930;28;20127;-78
2021/01/07 04:53:54;;;;;;;37.10;21.02;;;-3.30;87.20;;;;;;4976088;28;20027;-78
2021/01/07 04:56:20;;;;;;;35.05;21.08;;;-3.40;87.30;;;;;;4975493;28;20086;-76
2021/01/07 04:58:45;;;;;;;34.95;22.23;;;-3.30;87.10;;;;;;4975829;28;20058;-76
2021/01/07 05:01:12;;;;;;;34.47;19.33;;;-3.30;87.00;;;;;;4958563;28;20512;-76
2021/01/07 05:03:38;;;;;;;35.65;19.48;;;-3.30;86.40;;;;;;4976032;28;20026;-77
2021/01/07 05:06:04;;;;;;;41.90;20.45;;;-3.30;86.50;;;;;;4975703;28;20023;-76
2021/01/07 05:08:29;;;;;;;40.55;20.30;;;-3.40;86.70;;;;;;4975555;28;20132;-78
2021/01/07 05:10:57;;;;;;;40.58;23.52;;;-3.50;86.30;;;;;;4958182;28;20481;-77
2021/01/07 05:13:23;;;;;;;38.95;21.42;;;-3.40;86.20;;;;;;4975499;28;20034;-76
2021/01/07 05:15:49;;;;;;;32.63;15.80;;;-3.50;86.40;;;;;;4975334;28;20023;-78
2021/01/07 05:18:16;;;;;;;35.13;19.45;;;-3.50;86.20;;;;;;4975303;28;20025;-78
2021/01/07 05:20:42;;;;;;;30.45;19.40;;;-3.50;86.20;;;;;;4975359;28;20047;-77
2021/01/07 05:23:09;;;;;;;37.37;18.33;;;-3.50;85.80;;;;;;4975491;28;20113;-77
2021/01/07 05:25:38;;;;;;;31.23;15.70;;;-3.60;86.00;;;;;;4973844;28;20051;-79
2021/01/07 05:28:05;;;;;;;30.02;16.85;;;-3.50;85.90;;;;;;4980041;28;20063;-77
2021/01/07 05:30:32;;;;;;;31.98;15.98;;;-3.60;86.20;;;;;;4977043;28;20083;-77
2021/01/07 05:33:06;;;;;;;30.63;17.58;;;-3.50;86.50;;;;;;4953034;28;20155;-76
2021/01/07 05:35:33;;;;;;;31.45;18.10;;;-3.50;86.60;;;;;;4975095;28;20018;-77
2021/01/07 05:38:01;;;;;;;32.17;16.35;;;-3.50;86.50;;;;;;4970181;28;20019;-76
2021/01/07 05:40:27;;;;;;;25.67;15.43;;;-3.40;86.30;;;;;;4962036;28;20077;-78
2021/01/07 05:42:58;;;;;;;31.23;15.88;;;-3.40;86.30;;;;;;4976440;28;20034;-76
2021/01/07 05:45:25;;;;;;;30.88;15.18;;;-3.30;86.10;;;;;;4974794;28;20081;-77
2021/01/07 05:47:52;;;;;;;28.43;14.40;;;-3.40;85.80;;;;;;4975070;28;20117;-77
2021/01/07 05:50:21;;;;;;;26.50;17.17;;;-3.40;85.80;;;;;;4974953;28;20030;-77
2021/01/07 05:52:48;;;;;;;27.33;16.00;;;-3.40;86.10;;;;;;4975277;28;20037;-77
2021/01/07 05:55:18;;;;;;;;;;;-3.30;86.10;;;;;;4961050;28;20554;-77
2021/01/07 05:57:44;;;;;;;30.58;15.57;;;-3.30;86.30;;;;;;4978673;28;19910;-77
2021/01/07 06:00:15;;;;;;;31.10;17.13;;;-3.30;86.50;;;;;;4975281;28;20030;-77
2021/01/07 06:02:42;;;;;;;27.98;15.25;;;-3.20;86.50;;;;;;4974829;28;20011;-77
2021/01/07 06:05:13;;;;;;;27.38;16.55;;;-3.20;86.50;;;;;;4974658;28;20392;-78
2021/01/07 06:07:39;;;;;;;29.48;16.98;;;-3.10;86.20;;;;;;4974500;28;20050;-78
2021/01/07 06:10:08;;;;;;;23.75;15.20;;;-3.10;86.10;;;;;;4957017;28;20456;-77
2021/01/07 06:12:34;;;;;;;31.35;16.80;;;-3.10;85.80;;;;;;4974320;28;20058;-78
2021/01/07 06:15:03;;;;;;;32.10;15.93;;;-3.10;85.60;;;;;;4969968;28;20117;-77
2021/01/07 06:17:30;;;;;;;26.85;16.88;;;-3.00;85.30;;;;;;4974342;28;20031;-77
2021/01/07 06:19:56;;;;;;;;;;;-3.00;85.10;;;;;;4972563;28;20476;-78
2021/01/07 06:22:23;;;;;;;34.95;18.83;;;-3.00;85.40;;;;;;4974088;28;19953;-77
2021/01/07 06:24:54;;;;;;;40.92;20.45;;;-3.00;86.30;;;;;;4973934;28;20030;-78
2021/01/07 06:27:28;;;;;;;33.58;20.45;;;-3.00;86.30;;;;;;4974450;28;20069;-77
2021/01/07 06:30:00;;;;;;;37.45;19.65;;;-3.00;85.80;;;;;;4956629;28;20033;-77
2021/01/07 06:32:29;;;;;;;45.25;25.00;;;-3.00;85.80;;;;;;4974086;28;20074;-77
2021/01/07 06:34:57;;;;;;;39.40;21.20;;;-2.90;85.50;;;;;;4973798;28;20081;-78
2021/01/07 06:37:55;;;;;;;35.90;20.17;;;-2.90;85.30;;;;;;4974013;28;20019;-78
2021/01/07 06:40:25;;;;;;;34.65;19.80;;;-2.80;85.10;;;;;;4934775;28;20030;-77
2021/01/07 06:42:56;;;;;;;34.65;21.20;;;-2.80;85.40;;;;;;4981168;28;20049;-79
2021/01/07 06:45:24;;;;;;;43.53;19.27;;;-2.70;85.60;;;;;;4957127;28;20026;-79
2021/01/07 06:47:54;;;;;;;40.35;23.52;;;-2.70;85.40;;;;;;4976686;28;20523;-77
2021/01/07 06:50:20;;;;;;;39.03;23.40;;;-2.60;85.40;;;;;;4975083;28;20018;-78
2021/01/07 06:52:48;;;;;;;43.58;23.65;;;-2.60;85.30;;;;;;4967726;28;20019;-78
2021/01/07 06:55:19;;;;;;;41.17;23.98;;;-2.60;84.70;;;;;;4949654;28;20059;-79
2021/01/07 06:57:58;;;;;;;39.15;20.60;;;-2.50;84.10;;;;;;4973573;28;20023;-77
2021/01/07 07:00:26;;;;;;;42.35;21.98;;;-2.50;83.60;;;;;;4973726;28;20062;-78
2021/01/07 07:03:02;;;;;;;38.75;21.60;;;-2.40;84.00;;;;;;4951071;29;20023;-78
2021/01/07 07:05:34;;;;;;;36.00;19.90;;;-2.40;83.30;;;;;;4954638;28;20054;-79
2021/01/07 07:08:11;;;;;;;40.83;21.15;;;-2.40;82.80;;;;;;4960480;28;20456;-78
2021/01/07 07:10:37;;;;;;;34.92;20.48;;;-2.40;82.80;;;;;;4977959;28;20019;-78
2021/01/07 07:13:17;;;;;;;47.45;22.25;;;-2.40;82.50;;;;;;4982241;28;20030;-79
2021/01/07 07:15:45;;;;;;;41.35;24.25;;;-2.40;82.10;;;;;;4980678;28;20160;-79
2021/01/07 07:18:11;;;;;;;38.40;21.48;;;-2.50;81.10;;;;;;4985196;28;20023;-79
2021/01/07 07:20:44;;;;;;;43.20;22.58;;;-2.60;80.90;;;;;;4978439;28;20026;-79
2021/01/07 07:23:20;;;;;;;40.65;23.95;;;-2.70;81.90;;;;;;4977510;28;20026;-77
2021/01/07 07:26:06;;;;;;;46.47;22.88;;;-2.70;84.40;;;;;;4978233;28;20045;-79
2021/01/07 07:28:34;;;;;;;36.43;20.43;;;-2.70;84.90;;;;;;4977830;28;20058;-77
2021/01/07 07:31:00;;;;;;;43.88;22.67;;;-2.60;84.90;;;;;;4976676;28;20264;-76
2021/01/07 07:33:32;;;;;;;46.35;23.63;;;-2.60;84.60;;;;;;4960912;28;20023;-76
2021/01/07 07:35:59;;;;;;;38.47;20.83;;;-2.60;84.60;;;;;;4959934;28;20506;-76
2021/01/07 07:38:38;;;;;;;44.08;25.30;;;-2.50;85.50;;;;;;4977065;28;20109;-80
2021/01/07 07:41:14;;;;;;;41.97;23.15;;;-2.50;85.20;;;;;;4982050;28;20019;-79
2021/01/07 07:43:40;;;;;;;44.17;24.20;;;-2.50;84.40;;;;;;4977323;28;20023;-77
2021/01/07 07:46:07;;;;;;;32.33;21.08;;;-2.50;84.20;;;;;;4977120;28;20019;-77
2021/01/07 07:48:34;;;;;;;;;;;-2.50;84.50;;;;;;4964485;28;20054;-79
2021/01/07 07:51:04;;;;;;;42.28;22.95;;;-2.40;84.30;;;;;;4977405;28;20260;-78
2021/01/07 07:53:30;;;;;;;45.38;23.70;;;-2.40;83.90;;;;;;4977601;28;20026;-78
2021/01/07 07:55:57;;;;;;;45.72;23.85;;;-2.40;83.70;;;;;;4978727;28;20490;-78
2021/01/07 07:58:22;;;;;;;43.72;23.90;;;-2.40;83.60;;;;;;4984805;28;20161;-77
2021/01/07 08:00:56;;;;;;;36.75;22.25;;;-2.40;83.80;;;;;;4977957;28;20023;-80
2021/01/07 08:03:29;;;;;;;40.55;23.42;;;-2.40;83.40;;;;;;4966818;28;20022;-77
2021/01/07 08:05:58;;;;;;;40.78;22.58;;;-2.30;84.10;;;;;;4976148;28;20023;-78
2021/01/07 08:08:28;;;;;;;37.55;22.13;;;-2.30;83.20;;;;;;4957333;28;20034;-79
2021/01/07 08:10:56;;;;;;;43.80;24.02;;;-2.30;82.80;;;;;;4976515;28;20027;-78
2021/01/07 08:13:24;;;;;;;41.03;23.75;;;-2.40;82.60;;;;;;4968063;28;20401;-79
2021/01/07 08:15:57;;;;;;;37.95;21.30;;;-2.40;83.00;;;;;;4958216;28;20118;-78
2021/01/07 08:18:24;;;;;;;31.73;19.67;;;-2.30;84.40;;;;;;4958561;28;20031;-78
2021/01/07 08:20:52;;;;;;;38.13;20.98;;;-2.40;84.40;;;;;;4975995;28;20027;-78
2021/01/07 08:23:19;;;;;;;33.83;19.63;;;-2.30;83.40;;;;;;4975663;28;20368;-77
2021/01/07 08:25:52;;;;;;;35.03;20.45;;;-2.40;83.10;;;;;;4963918;28;20101;-80
2021/01/07 08:28:27;;;;;;;39.67;20.10;;;-2.50;82.30;;;;;;4975734;28;20067;-79
2021/01/07 08:31:01;;;;;;;39.70;21.83;;;-2.50;83.70;;;;;;4976389;28;20030;-81
2021/01/07 08:33:28;;;;;;;34.60;18.33;;;-2.50;83.30;;;;;;4975603;28;20015;-80
2021/01/07 08:36:10;;;;;;;34.53;17.42;;;-2.40;83.20;;;;;;4975992;28;20023;-78
2021/01/07 08:38:37;;;;;;;26.48;17.73;;;-2.30;83.10;;;;;;4976081;28;20023;-78
2021/01/07 08:41:12;;;;;;;39.50;17.65;;;-2.30;82.80;;;;;;4976517;28;20027;-76
2021/01/07 08:43:38;;;;;;;35.60;18.60;;;-2.30;82.70;;;;;;4975563;28;20051;-78
2021/01/07 08:46:12;;;;;;;33.35;19.35;;;-2.20;82.60;;;;;;4976240;28;20074;-78
2021/01/07 08:48:38;;;;;;;39.30;19.42;;;-2.20;82.50;;;;;;4975988;28;20519;-76
2021/01/07 08:51:18;;;;;;;32.10;18.13;;;-2.10;81.90;;;;;;4975962;28;20527;-80
2021/01/07 08:53:52;;;;;;;34.00;18.63;;;-2.10;80.90;;;;;;4976229;28;20037;-77
2021/01/07 08:56:37;;;;;;;31.52;18.90;;;-2.20;80.80;;;;;;4975994;28;20373;-76
2021/01/07 08:59:25;;;;;;;30.67;18.05;;;-2.30;80.90;;;;;;4980501;28;20023;-80
2021/01/07 09:02:04;;;;;;;30.40;18.52;;;-2.40;79.90;;;;;;4983609;28;20105;-79
2021/01/07 09:04:36;;;;;;;31.23;17.42;;;-2.50;80.80;;;;;;4976448;28;20073;-78
2021/01/07 09:07:04;;;;;;;29.60;19.20;;;-2.50;82.00;;;;;;4976029;28;20035;-78
2021/01/07 09:09:43;;;;;;;33.53;17.85;;;-2.50;81.60;;;;;;4975899;28;20097;-77
2021/01/07 09:12:12;;;;;;;29.30;16.23;;;-2.60;81.50;;;;;;4975935;28;20027;-77
2021/01/07 09:14:57;;;;;;;28.88;18.15;;;-2.70;82.80;;;;;;4975968;28;20038;-76
2021/01/07 09:17:37;;;;;;;33.75;19.52;;;-2.70;82.80;;;;;;4975577;28;20081;-77
2021/01/07 09:20:09;;;;;;;32.38;16.63;;;-2.80;82.40;;;;;;4975711;28;20042;-79
2021/01/07 09:22:36;;;;;;;32.28;17.13;;;-2.90;82.20;;;;;;4975380;28;20041;-77
2021/01/07 09:25:03;;;;;;;28.63;17.88;;;-3.00;82.10;;;;;;4975931;28;20050;-80
2021/01/07 09:27:28;;;;;;;27.08;15.98;;;-3.00;82.80;;;;;;4955277;28;20406;-80
2021/01/07 09:29:54;;;;;;;28.52;15.00;;;-3.00;82.80;;;;;;4970539;28;20026;-77
2021/01/07 09:32:20;;;;;;;33.47;17.98;;;-3.10;82.80;;;;;;4975095;28;20023;-80
2021/01/07 09:34:46;;;;;;;29.95;18.23;;;-3.10;83.00;;;;;;4975087;28;20022;-79
2021/01/07 09:37:23;;;;;;;30.15;17.50;;;-3.10;83.60;;;;;;4958452;28;20034;-81
2021/01/07 09:39:51;;;;;;;27.40;16.02;;;-3.00;84.60;;;;;;4958193;28;20015;-81
2021/01/07 09:42:21;;;;;;;32.15;19.30;;;-3.00;83.50;;;;;;4976609;28;20038;-80
2021/01/07 09:44:48;;;;;;;30.52;17.77;;;-3.00;83.60;;;;;;4974784;28;20022;-77
2021/01/07 09:47:15;;;;;;;33.97;18.95;;;-3.00;84.50;;;;;;4974660;28;20035;-80
2021/01/07 09:49:42;;;;;;;35.65;20.00;;;-3.00;84.50;;;;;;4975540;28;20110;-79
2021/01/07 09:52:08;;;;;;;27.02;16.05;;;-3.00;83.80;;;;;;4975312;28;20038;-79
2021/01/07 09:54:34;;;;;;;32.67;18.48;;;-2.90;84.30;;;;;;4972824;28;20356;-78
2021/01/07 09:57:01;;;;;;;38.00;21.33;;;-2.90;84.50;;;;;;4975393;28;20034;-80
2021/01/07 09:59:29;;;;;;;34.85;21.20;;;-2.90;84.30;;;;;;4976435;28;20019;-78
2021/01/07 10:01:59;;;;;;;33.63;19.92;;;-2.80;83.90;;;;;;4978586;28;20038;-78
2021/01/07 10:04:31;;;;;;;33.13;22.65;;;-2.90;83.80;;;;;;4974948;28;20026;-80
2021/01/07 10:06:58;;;;;;;38.42;21.73;;;-2.90;83.20;;;;;;4974685;28;20407;-80
2021/01/07 10:09:24;;;;;;;31.85;16.13;;;-3.00;83.50;;;;;;4969385;28;20065;-79
2021/01/07 10:11:51;;;;;;;42.47;24.42;;;-3.10;83.90;;;;;;4974462;28;20058;-79
2021/01/07 10:14:18;;;;;;;51.40;23.63;;;-3.10;84.30;;;;;;4957184;28;20026;-78
2021/01/07 10:16:50;;;;;;;32.00;17.98;;;-3.10;84.70;;;;;;4974228;28;20029;-81
2021/01/07 10:19:18;;;;;;;41.83;24.60;;;-3.00;84.40;;;;;;4974997;28;20030;-80
2021/01/07 10:22:14;;;;;;;50.50;24.35;;;-3.00;85.10;;;;;;4974960;28;20026;-81
2021/01/07 10:24:42;;;;;;;42.15;22.75;;;-2.90;84.30;;;;;;4971479;28;20027;-80
2021/01/07 10:27:10;;;;;;;44.47;23.50;;;-2.80;84.40;;;;;;4975126;28;20027;-81
2021/01/07 10:29:37;;;;;;;37.58;23.10;;;-2.60;84.10;;;;;;4957233;28;20505;-81
2021/01/07 10:32:07;;;;;;;47.47;25.52;;;-2.50;84.20;;;;;;4971402;28;20019;-81
2021/01/07 10:34:43;;;;;;;38.47;19.17;;;-2.40;84.00;;;;;;4974175;28;20022;-82
2021/01/07 10:37:11;;;;;;;36.45;20.98;;;-2.20;84.20;;;;;;4974674;28;20076;-81
2021/01/07 10:39:40;;;;;;;36.30;20.52;;;-2.00;83.70;;;;;;4974618;28;20081;-80
2021/01/07 10:42:16;;;;;;;36.70;21.88;;;-1.90;82.90;;;;;;4968867;28;20514;-80
2021/01/07 10:44:44;;;;;;;37.85;20.10;;;-1.70;82.20;;;;;;4962899;28;20412;-81
2021/01/07 10:47:11;;;;;;;37.72;20.85;;;-1.60;82.20;;;;;;4988983;28;20031;-79
2021/01/07 10:49:40;;;;;;;39.75;21.17;;;-1.40;81.40;;;;;;4976639;28;20106;-79
2021/01/07 10:52:10;;;;;;;33.67;20.98;;;-1.30;80.80;;;;;;4973883;28;20105;-79
2021/01/07 10:54:43;;;;;;;34.08;21.92;;;-1.20;80.20;;;;;;4974824;28;20385;-83
2021/01/07 10:57:46;;;;;;;39.45;21.67;;;-1.10;78.30;;;;;;4976301;28;20576;-83
2021/01/07 11:00:28;;;;;;;38.78;20.77;;;-1.20;78.00;;;;;;4971012;28;20526;-83
2021/01/07 11:03:17;;;;;;;33.95;18.90;;;-1.20;78.30;;;;;;4974812;28;20138;-81
2021/01/07 11:05:52;;;;;;;61.95;22.33;;;-1.20;78.80;;;;;;4974533;28;20474;-82
2021/01/07 11:08:34;;;;;;;80.25;26.70;;;-1.20;78.50;;;;;;4956811;28;20090;-82
2021/01/07 11:11:09;;;;;;;32.35;20.17;;;-1.20;78.20;;;;;;4972029;28;20024;-82
2021/01/07 11:13:42;;;;;;;37.00;23.42;;;-1.10;79.10;;;;;;4969148;28;20019;-82
2021/01/07 11:16:22;;;;;;;35.15;19.88;;;-1.10;78.50;;;;;;4958504;28;20035;-82
2021/01/07 11:18:52;;;;;;;45.75;22.67;;;-1.10;78.20;;;;;;4967583;28;20480;-84
2021/01/07 11:21:23;;;;;;;43.50;23.92;;;-1.00;80.00;;;;;;4975556;28;20380;-84
2021/01/07 11:23:49;;;;;;;40.85;25.25;;;-1.00;78.80;;;;;;4981159;28;20027;-80
2021/01/07 11:26:16;;;;;;;41.33;24.75;;;-1.00;78.00;;;;;;4978476;28;20042;-81
2021/01/07 11:28:42;;;;;;;36.80;24.25;;;-1.10;78.00;;;;;;4974523;28;20439;-81
2021/01/07 11:31:12;;;;;;;46.20;24.10;;;-1.10;78.10;;;;;;4973542;28;20062;-80
2021/01/07 11:33:39;;;;;;;43.50;23.70;;;-1.10;78.10;;;;;;4959130;28;20086;-78
2021/01/07 11:36:11;;;;;;;47.83;26.25;;;-1.10;78.60;;;;;;4959288;28;20023;-78
2021/01/07 11:38:48;;;;;;;55.40;27.98;;;-1.20;78.30;;;;;;4954869;28;20055;-80
2021/01/07 11:41:45;;;;;;;43.30;25.70;;;-1.20;77.90;;;;;;4967806;28;20027;-80
2021/01/07 11:44:20;;;;;;;41.55;26.55;;;-1.30;77.90;;;;;;4964198;28;20070;-81
2021/01/07 11:46:48;;;;;;;46.85;27.33;;;-1.30;78.10;;;;;;4973436;28;20041;-80
2021/01/07 11:49:23;;;;;;;52.03;28.98;;;-1.40;78.60;;;;;;4970449;28;20071;-82
2021/01/07 11:51:59;;;;;;;53.92;30.45;;;-1.40;79.10;;;;;;4971372;28;20027;-81
2021/01/07 11:54:27;;;;;;;61.78;31.13;;;-1.40;79.20;;;;;;4973646;28;20018;-81
2021/01/07 11:56:57;;;;;;;65.18;34.05;;;-1.40;79.50;;;;;;4978133;28;20157;-80
2021/01/07 11:59:23;;;;;;;65.75;33.10;;;-1.40;79.80;;;;;;4978707;28;20027;-80
2021/01/07 12:01:50;;;;;;;59.55;34.67;;;-1.40;79.40;;;;;;4981830;28;20019;-80
2021/01/07 12:04:21;;;;;;;70.05;36.65;;;-1.50;79.40;;;;;;4978494;28;20066;-82
2021/01/07 12:06:58;;;;;;;66.97;35.72;;;-1.50;80.30;;;;;;4959899;28;20377;-83
2021/01/07 12:09:33;;;;;;;82.53;41.95;;;-1.50;79.90;;;;;;4977579;28;20385;-82
2021/01/07 12:12:10;;;;;;;74.97;40.67;;;-1.60;79.60;;;;;;4978709;28;20030;-83
2021/01/07 12:14:44;;;;;;;80.22;39.13;;;-1.60;79.30;;;;;;4961273;28;20476;-81
2021/01/07 12:17:12;;;;;;;76.25;38.53;;;-1.70;79.20;;;;;;4980681;28;20380;-85
2021/01/07 12:19:41;;;;;;;67.15;35.67;;;-1.80;79.40;;;;;;4983235;28;20015;-82
2021/01/07 12:22:09;;;;;;;64.65;37.25;;;-1.80;79.40;;;;;;4978307;28;20023;-80
2021/01/07 12:24:35;;;;;;;69.55;36.03;;;-1.90;79.40;;;;;;4984997;28;20109;-82
2021/01/07 12:27:03;;;;;;;87.57;41.38;;;-1.90;79.70;;;;;;4973580;28;20117;-83
2021/01/07 12:29:29;;;;;;;;;;;-1.90;80.00;;;;;;4977667;28;20023;-81
2021/01/07 12:32:01;;;;;;;76.88;37.10;;;-1.90;80.30;;;;;;4976746;28;19913;-80
2021/01/07 12:35:00;;;;;;;63.35;33.85;;;-2.00;79.90;;;;;;4986892;28;20031;-80
2021/01/07 12:37:30;;;;;;;62.75;34.13;;;-2.00;80.20;;;;;;4973035;28;20046;-81